Time;durP1;ratioP1;P1;durP2;ratioP2;P2;SDS_P1;SDS_P2;PMS_P1;PMS_P2;Temp;Humidity;BMP_temperature;BMP_pressure;BME280_temperature;BME280_humidity;BME280_pressure;Samples;Min_cycle;Max_cycle;Signal;HPM_P1;HPM_P2
2024/01/08 00:01:49;;;;;;;5.13;4.00;;;;;;;-3.49;76.25;95835.88;5024156;28;20258;-77
2024/01/08 00:04:15;;;;;;;4.00;3.53;;;;;;;-3.45;75.05;95839.94;5007358;28;20184;-78
2024/01/08 00:06:40;;;;;;;6.10;4.00;;;;;;;-3.45;75.46;95842.47;5023867;28;20195;-78
2024/01/08 00:09:05;;;;;;;6.13;3.67;;;;;;;-3.22;75.21;95836.56;5021839;28;20282;-78
2024/01/08 00:11:30;;;;;;;4.20;3.77;;;;;;;-3.45;75.31;95827.25;5023259;28;20268;-77
2024/01/08 00:13:56;;;;;;;5.17;4.13;;;;;;;-3.25;75.25;95826.53;5026392;28;20645;-78
2024/01/08 00:16:21;;;;;;;4.80;4.03;;;;;;;-3.35;74.85;95831.13;5028918;28;20187;-78
2024/01/08 00:18:47;;;;;;;5.13;3.90;;;;;;;-3.20;74.62;95830.53;5007040;28;20204;-77
2024/01/08 00:21:12;;;;;;;6.60;4.63;;;;;;;-3.05;74.33;95839.28;5026488;28;20191;-78
2024/01/08 00:23:37;;;;;;;4.87;3.63;;;;;;;-3.10;74.70;95836.06;5025011;28;20191;-78
2024/01/08 00:26:03;;;;;;;4.40;3.23;;;;;;;-3.35;73.56;95845.53;5027374;28;20246;-79
2024/01/08 00:28:28;;;;;;;4.37;3.80;;;;;;;-3.19;74.28;95834.72;5007130;28;20566;-78
2024/01/08 00:30:53;;;;;;;6.43;4.10;;;;;;;-3.21;74.45;95833.94;5029571;28;20187;-78
2024/01/08 00:33:19;;;;;;;5.57;4.47;;;;;;;-3.30;74.41;95834.28;5022018;28;20194;-78
2024/01/08 00:35:44;;;;;;;5.23;4.03;;;;;;;-3.39;74.39;95846.50;5022238;28;20183;-78
2024/01/08 00:38:09;;;;;;;5.60;3.80;;;;;;;-3.20;73.91;95842.41;5021846;28;20285;-78
2024/01/08 00:40:35;;;;;;;4.57;3.70;;;;;;;-2.97;73.62;95836.44;5028143;28;20213;-78
2024/01/08 00:43:00;;;;;;;4.40;3.70;;;;;;;-3.41;74.60;95841.50;5023408;28;20191;-78
2024/01/08 00:45:26;;;;;;;4.53;3.83;;;;;;;-3.28;74.81;95844.38;5023149;28;20197;-78
2024/01/08 00:47:51;;;;;;;6.80;3.90;;;;;;;-3.51;74.45;95837.63;5024966;28;20592;-77
2024/01/08 00:50:16;;;;;;;6.73;3.70;;;;;;;-3.02;73.43;95836.63;5007935;28;20187;-79
2024/01/08 00:52:42;;;;;;;5.03;4.13;;;;;;;-3.35;74.51;95837.91;5024496;28;20191;-78
2024/01/08 00:55:08;;;;;;;5.67;4.13;;;;;;;-3.17;74.30;95835.50;5026165;28;20669;-77
2024/01/08 00:57:34;;;;;;;5.77;4.37;;;;;;;-3.42;74.70;95839.84;5011156;28;20225;-78
2024/01/08 00:59:59;;;;;;;5.87;4.37;;;;;;;-3.16;73.90;95834.63;5021505;28;20211;-79
2024/01/08 01:02:25;;;;;;;5.93;4.43;;;;;;;-3.20;74.10;95829.69;5024556;28;20249;-78
2024/01/08 01:04:50;;;;;;;4.20;3.77;;;;;;;-3.31;74.75;95839.44;5009429;28;20194;-79
2024/01/08 01:07:16;;;;;;;4.50;3.90;;;;;;;-3.18;73.98;95844.00;5027654;28;20191;-77
2024/01/08 01:09:41;;;;;;;5.70;4.30;;;;;;;-3.20;73.67;95839.84;5023646;28;20191;-78
2024/01/08 01:12:06;;;;;;;5.73;3.93;;;;;;;-3.46;74.47;95848.44;5008353;28;20225;-78
2024/01/08 01:14:32;;;;;;;4.67;3.67;;;;;;;-3.54;74.03;95841.09;5023847;28;20569;-77
2024/01/08 01:16:57;;;;;;;6.00;4.03;;;;;;;-3.38;74.10;95836.28;5009451;28;20250;-78
2024/01/08 01:19:23;;;;;;;5.23;4.03;;;;;;;-3.13;73.99;95846.38;5023915;28;20214;-78
2024/01/08 01:21:48;;;;;;;4.83;4.17;;;;;;;-3.27;74.61;95846.91;5026606;28;20187;-78
2024/01/08 01:24:13;;;;;;;6.17;4.43;;;;;;;-3.26;74.49;95840.94;5024789;28;20211;-78
2024/01/08 01:26:39;;;;;;;6.03;4.63;;;;;;;-3.16;74.64;95856.66;5027476;28;20193;-78
2024/01/08 01:29:04;;;;;;;6.23;4.33;;;;;;;-3.00;74.42;95855.19;5022622;28;20257;-78
2024/01/08 01:31:31;;;;;;;4.93;3.70;;;;;;;-3.20;73.67;95850.00;5015761;28;20190;-78
2024/01/08 01:33:56;;;;;;;5.40;4.13;;;;;;;-2.94;73.10;95854.13;5023235;28;20272;-78
2024/01/08 01:36:22;;;;;;;5.67;4.80;;;;;;;-3.00;73.84;95857.75;5025377;28;20222;-77
2024/01/08 01:38:47;;;;;;;5.30;4.33;;;;;;;-3.06;73.98;95862.22;5020857;28;20225;-78
2024/01/08 01:41:12;;;;;;;5.63;4.50;;;;;;;-2.96;73.18;95848.28;5025911;28;20724;-78
2024/01/08 01:43:38;;;;;;;7.93;4.37;;;;;;;-3.19;74.31;95851.66;5026175;28;20187;-79
2024/01/08 01:46:07;;;;;;;4.70;3.60;;;;;;;-3.15;73.34;95853.22;5028016;28;20222;-78
2024/01/08 01:48:33;;;;;;;4.03;3.63;;;;;;;-3.11;73.59;95856.47;5012090;28;20218;-78
2024/01/08 01:50:58;;;;;;;4.43;4.00;;;;;;;-3.21;73.91;95855.97;5011696;28;20190;-78
2024/01/08 01:53:24;;;;;;;5.57;4.33;;;;;;;-2.99;73.09;95863.66;5028790;28;20247;-78
2024/01/08 01:55:50;;;;;;;5.53;4.27;;;;;;;-3.04;73.54;95853.63;5028970;28;20187;-79
2024/01/08 01:58:15;;;;;;;5.30;3.97;;;;;;;-3.07;73.91;95850.41;5012181;28;20277;-78
2024/01/08 02:00:42;;;;;;;5.83;4.73;;;;;;;-3.24;74.50;95849.31;5012189;28;20187;-78
2024/01/08 02:03:08;;;;;;;6.10;4.07;;;;;;;-3.31;74.60;95845.34;5010279;28;20195;-78
2024/01/08 02:05:34;;;;;;;5.03;4.03;;;;;;;-2.90;73.39;95845.50;5014939;28;20182;-78
2024/01/08 02:08:00;;;;;;;6.53;4.30;;;;;;;-2.98;73.38;95843.25;5012919;28;20214;-78
2024/01/08 02:10:26;;;;;;;4.33;3.93;;;;;;;-3.04;74.24;95840.94;5028049;28;20179;-78
2024/01/08 02:12:51;;;;;;;4.93;4.07;;;;;;;-3.30;74.78;95844.44;5010837;28;20707;-78
2024/01/08 02:15:16;;;;;;;5.17;4.47;;;;;;;-3.19;74.41;95837.25;5013475;28;20208;-77
2024/01/08 02:17:42;;;;;;;7.23;4.90;;;;;;;-2.94;73.46;95844.78;5013844;28;20786;-78
2024/01/08 02:20:08;;;;;;;7.40;4.77;;;;;;;-2.90;73.71;95846.31;5009842;28;20275;-78
2024/01/08 02:22:40;;;;;;;5.80;4.43;;;;;;;-2.80;73.96;95829.00;5015064;28;20187;-78
2024/01/08 02:25:07;;;;;;;6.10;4.27;;;;;;;-2.97;73.58;95832.19;5011570;28;20223;-78
2024/01/08 02:27:32;;;;;;;6.37;4.27;;;;;;;-2.90;73.44;95832.78;5012081;28;20197;-78
2024/01/08 02:29:57;;;;;;;4.67;3.73;;;;;;;-3.01;74.54;95824.75;5009422;28;20189;-78
2024/01/08 02:32:23;;;;;;;5.83;4.43;;;;;;;-2.99;74.17;95828.06;5031355;28;20641;-77
2024/01/08 02:34:48;;;;;;;4.47;4.07;;;;;;;-3.19;74.14;95828.81;5027507;28;20179;-78
2024/01/08 02:37:14;;;;;;;5.43;4.27;;;;;;;-3.00;74.36;95832.31;5008273;28;20571;-78
2024/01/08 02:39:39;;;;;;;5.27;4.30;;;;;;;-3.02;74.57;95838.34;5012507;28;20214;-78
2024/01/08 02:42:05;;;;;;;4.53;4.13;;;;;;;-3.08;74.39;95833.50;5030127;28;20230;-78
2024/01/08 02:44:30;;;;;;;4.40;3.97;;;;;;;-2.75;73.69;95833.88;5011700;28;20198;-78
2024/01/08 02:46:55;;;;;;;5.43;4.57;;;;;;;-3.05;74.55;95833.38;5027363;28;20201;-78
2024/01/08 02:49:20;;;;;;;5.77;4.23;;;;;;;-3.11;74.52;95831.06;5011420;28;20215;-79
2024/01/08 02:51:46;;;;;;;5.00;4.03;;;;;;;-3.03;74.89;95826.50;5013483;28;20195;-78
2024/01/08 02:54:11;;;;;;;4.63;3.93;;;;;;;-2.99;74.67;95830.63;5025082;28;20222;-78
2024/01/08 02:56:36;;;;;;;5.33;4.70;;;;;;;-2.75;74.54;95832.16;5012619;28;20202;-78
2024/01/08 02:59:06;;;;;;;5.37;4.47;;;;;;;-3.03;74.55;95826.50;5008381;28;20203;-78
2024/01/08 03:01:32;;;;;;;5.17;4.43;;;;;;;-3.04;75.13;95832.47;5013273;28;20190;-78
2024/01/08 03:03:57;;;;;;;6.23;4.90;;;;;;;-2.70;74.46;95839.63;5027001;28;20238;-78
2024/01/08 03:06:23;;;;;;;5.57;4.47;;;;;;;-2.90;74.61;95837.88;5032469;28;20184;-78
2024/01/08 03:08:48;;;;;;;5.90;4.47;;;;;;;-2.94;75.17;95836.31;5026002;28;20230;-78
2024/01/08 03:11:13;;;;;;;4.70;4.10;;;;;;;-2.82;74.20;95845.22;5010803;28;20221;-78
2024/01/08 03:13:39;;;;;;;5.03;4.23;;;;;;;-2.98;75.23;95847.50;5026167;28;20219;-78
2024/01/08 03:16:05;;;;;;;5.13;4.27;;;;;;;-2.89;75.16;95844.63;5013540;28;20198;-78
2024/01/08 03:18:30;;;;;;;5.17;4.23;;;;;;;-2.79;74.61;95845.06;5026955;28;20271;-78
2024/01/08 03:20:55;;;;;;;5.20;4.70;;;;;;;-3.21;75.74;95843.28;5024356;28;20210;-77
2024/01/08 03:23:21;;;;;;;5.97;4.90;;;;;;;-2.79;74.54;95842.53;5011061;28;20194;-79
2024/01/08 03:25:46;;;;;;;4.40;3.93;;;;;;;-3.09;75.48;95847.06;5011597;28;20187;-78
2024/01/08 03:28:11;;;;;;;6.37;4.60;;;;;;;-3.00;74.65;95841.66;5026423;28;20203;-78
2024/01/08 03:30:37;;;;;;;5.00;4.37;;;;;;;-2.79;74.38;95833.19;5029215;28;20266;-78
2024/01/08 03:33:02;;;;;;;4.53;4.03;;;;;;;-2.87;74.35;95832.66;5027580;28;20187;-78
2024/01/08 03:35:28;;;;;;;7.33;4.50;;;;;;;-3.03;75.37;95844.31;5010885;28;20244;-77
2024/01/08 03:37:53;;;;;;;6.43;3.80;;;;;;;-3.08;75.24;95834.34;5023720;28;20199;-78
2024/01/08 03:40:18;;;;;;;5.47;4.37;;;;;;;-3.07;75.19;95837.69;5027602;28;20218;-78
2024/01/08 03:42:45;;;;;;;5.03;4.40;;;;;;;-2.97;75.43;95831.38;5028896;28;20202;-79
2024/01/08 03:45:10;;;;;;;4.93;4.03;;;;;;;-3.07;75.30;95832.63;5008893;28;20623;-78
2024/01/08 03:47:36;;;;;;;5.00;4.17;;;;;;;-2.75;74.40;95837.25;5043294;28;20226;-79
2024/01/08 03:50:01;;;;;;;4.83;4.17;;;;;;;-2.72;74.73;95838.88;5027293;28;20191;-78
2024/01/08 03:52:27;;;;;;;5.13;4.27;;;;;;;-2.66;74.41;95841.97;5012019;28;20184;-78
2024/01/08 03:54:52;;;;;;;7.20;4.97;;;;;;;-2.86;75.10;95839.41;5024193;28;20190;-77
2024/01/08 03:57:17;;;;;;;5.80;4.80;;;;;;;-2.76;74.80;95834.78;5027793;28;20251;-79
2024/01/08 03:59:43;;;;;;;5.97;4.63;;;;;;;-2.75;74.46;95839.81;5025353;28;20297;-79
2024/01/08 04:02:08;;;;;;;6.83;4.93;;;;;;;-2.67;75.06;95842.88;5026035;28;20188;-78
2024/01/08 04:04:33;;;;;;;4.93;4.43;;;;;;;-2.65;74.37;95838.56;5028170;28;20233;-78
2024/01/08 04:06:59;;;;;;;8.93;4.80;;;;;;;-3.18;75.77;95840.63;5008879;28;20188;-78
2024/01/08 04:09:25;;;;;;;6.73;4.53;;;;;;;-3.03;75.16;95841.75;5025411;28;20302;-78
2024/01/08 04:11:50;;;;;;;5.67;4.30;;;;;;;-3.30;76.63;95836.84;5024065;28;20183;-79
2024/01/08 04:14:15;;;;;;;5.50;4.83;;;;;;;-2.94;75.33;95833.78;5009103;28;20193;-78
2024/01/08 04:16:41;;;;;;;6.07;4.60;;;;;;;-3.19;76.04;95834.72;5027521;28;20645;-77
2024/01/08 04:19:06;;;;;;;8.10;4.70;;;;;;;-3.07;75.75;95838.53;5024547;28;20627;-78
2024/01/08 04:21:32;;;;;;;4.97;4.30;;;;;;;-2.92;75.91;95845.53;5027024;28;20183;-78
2024/01/08 04:23:57;;;;;;;5.70;4.70;;;;;;;-2.80;75.54;95839.16;5025412;28;20190;-78
2024/01/08 04:26:25;;;;;;;5.83;5.30;;;;;;;-3.00;76.07;95834.88;5012284;28;20207;-77
2024/01/08 04:28:51;;;;;;;5.00;4.50;;;;;;;-3.01;76.36;95839.97;5004827;28;20218;-78
2024/01/08 04:31:20;;;;;;;6.93;4.80;;;;;;;-2.76;76.25;95835.59;5013381;28;20179;-79
2024/01/08 04:33:46;;;;;;;5.73;5.13;;;;;;;-2.97;76.51;95837.28;5025704;28;20186;-78
2024/01/08 04:36:15;;;;;;;9.10;5.23;;;;;;;-2.78;75.77;95851.81;5026257;28;20528;-78
2024/01/08 04:38:41;;;;;;;5.70;4.83;;;;;;;-2.80;76.17;95848.50;5024275;28;20215;-79
2024/01/08 04:41:07;;;;;;;5.83;5.00;;;;;;;-3.16;76.69;95839.69;5013456;28;20214;-78
2024/01/08 04:43:32;;;;;;;8.90;5.50;;;;;;;-3.26;78.11;95847.72;5006921;28;20191;-78
2024/01/08 04:45:57;;;;;;;5.77;4.87;;;;;;;-3.09;77.56;95841.97;5024408;28;20614;-78
2024/01/08 04:48:23;;;;;;;5.23;4.50;;;;;;;-3.28;78.20;95844.38;5007062;28;20244;-78
2024/01/08 04:50:48;;;;;;;6.47;5.50;;;;;;;-3.28;78.10;95852.84;5027187;28;20197;-78
2024/01/08 04:53:13;;;;;;;8.63;5.40;;;;;;;-2.86;77.47;95849.56;5008621;28;20207;-77
2024/01/08 04:55:39;;;;;;;4.53;4.10;;;;;;;-3.00;76.86;95851.81;5025725;28;20222;-78
2024/01/08 04:58:08;;;;;;;6.67;4.77;;;;;;;-3.30;77.93;95848.72;5008140;28;20246;-78
2024/01/08 05:00:33;;;;;;;5.20;4.23;;;;;;;-3.04;77.04;95855.34;5008619;28;20233;-77
2024/01/08 05:02:58;;;;;;;6.60;4.70;;;;;;;-3.02;77.23;95851.03;5006196;28;20190;-78
2024/01/08 05:05:24;;;;;;;7.07;5.60;;;;;;;-3.10;76.57;95858.13;5028756;28;20198;-78
2024/01/08 05:07:49;;;;;;;7.23;5.30;;;;;;;-2.82;76.59;95855.38;5025749;28;20207;-78
2024/01/08 05:10:15;;;;;;;7.47;5.30;;;;;;;-2.94;76.97;95856.66;5023815;28;20187;-78
2024/01/08 05:12:40;;;;;;;8.00;5.60;;;;;;;-2.82;76.41;95851.13;5005555;28;20206;-78
2024/01/08 05:15:06;;;;;;;6.53;5.73;;;;;;;-3.08;76.72;95858.91;5024727;28;20183;-79
2024/01/08 05:17:31;;;;;;;4.97;4.43;;;;;;;-3.18;76.83;95859.25;5010219;28;20213;-78
2024/01/08 05:19:57;;;;;;;6.53;4.60;;;;;;;-3.32;77.71;95866.53;5019559;28;20203;-78
2024/01/08 05:22:23;;;;;;;6.30;4.37;;;;;;;-3.31;77.51;95868.19;5006499;28;20191;-78
2024/01/08 05:24:48;;;;;;;5.97;4.60;;;;;;;-3.52;76.98;95869.00;5021480;28;20285;-77
2024/01/08 05:27:14;;;;;;;4.90;4.37;;;;;;;-3.29;75.61;95858.81;5024388;28;20533;-77
2024/01/08 05:29:39;;;;;;;7.17;4.30;;;;;;;-3.29;76.00;95868.13;5024484;28;20275;-79
2024/01/08 05:32:05;;;;;;;6.47;5.20;;;;;;;-2.93;74.72;95873.56;5023280;28;20195;-78
2024/01/08 05:34:31;;;;;;;4.70;4.20;;;;;;;-3.26;75.69;95870.59;5009196;28;20249;-77
2024/01/08 05:36:56;;;;;;;7.20;4.67;;;;;;;-3.01;74.57;95878.09;5006912;28;20270;-79
2024/01/08 05:39:22;;;;;;;5.70;5.10;;;;;;;-3.09;74.67;95873.31;5006587;28;20211;-78
2024/01/08 05:41:48;;;;;;;5.33;4.43;;;;;;;-3.46;75.06;95878.91;5026570;28;20219;-78
2024/01/08 05:44:14;;;;;;;5.10;4.60;;;;;;;-3.39;75.26;95887.97;5020755;28;20254;-78
2024/01/08 05:46:41;;;;;;;4.10;3.70;;;;;;;-3.65;75.12;95890.59;5013290;28;20211;-78
2024/01/08 05:49:07;;;;;;;6.30;4.70;;;;;;;-3.55;75.27;95876.69;5011345;28;20274;-78
2024/01/08 05:51:32;;;;;;;6.70;4.13;;;;;;;-3.48;74.52;95880.69;5018722;28;20213;-78
2024/01/08 05:53:57;;;;;;;5.07;4.03;;;;;;;-3.47;74.39;95882.31;5017404;28;20784;-78
2024/01/08 05:56:23;;;;;;;4.83;4.33;;;;;;;-3.55;74.08;95889.38;5022509;28;20685;-78
2024/01/08 05:58:48;;;;;;;5.50;4.20;;;;;;;-3.29;72.96;95881.66;5022590;28;20208;-79
2024/01/08 06:01:14;;;;;;;5.57;4.17;;;;;;;-3.30;73.44;95891.88;5022545;28;20217;-78
2024/01/08 06:03:39;;;;;;;6.27;4.67;;;;;;;-3.49;73.83;95896.78;5021888;28;20707;-78
2024/01/08 06:06:04;;;;;;;5.33;4.63;;;;;;;-3.40;74.27;95890.56;5020610;28;20240;-78
2024/01/08 06:08:31;;;;;;;6.20;4.43;;;;;;;-3.54;74.15;95903.72;5008673;28;20309;-79
2024/01/08 06:10:56;;;;;;;6.80;4.83;;;;;;;-3.50;73.92;95895.97;5021949;28;20205;-78
2024/01/08 06:13:22;;;;;;;6.80;5.17;;;;;;;-3.46;73.86;95896.69;5020340;28;20803;-78
2024/01/08 06:15:47;;;;;;;6.83;4.70;;;;;;;-3.18;73.21;95901.59;5023486;28;20187;-78
2024/01/08 06:18:13;;;;;;;8.00;5.10;;;;;;;-3.39;73.17;95898.13;5024931;28;20256;-78
2024/01/08 06:20:39;;;;;;;6.87;5.17;;;;;;;-3.57;72.55;95901.31;5020943;28;20278;-78
2024/01/08 06:23:04;;;;;;;6.10;4.83;;;;;;;-3.39;73.11;95895.59;5024697;28;20187;-78
2024/01/08 06:25:30;;;;;;;8.70;5.67;;;;;;;-3.41;72.57;95899.91;5004036;28;20262;-78
2024/01/08 06:27:55;;;;;;;6.97;5.67;;;;;;;-3.48;73.13;95890.84;5019322;28;20203;-78
2024/01/08 06:30:21;;;;;;;6.80;5.60;;;;;;;-3.38;72.28;95894.69;5001479;28;20191;-78
2024/01/08 06:32:46;;;;;;;8.23;5.60;;;;;;;-3.18;72.06;95894.81;5015487;28;20188;-78
2024/01/08 06:35:11;;;;;;;8.33;6.17;;;;;;;-3.06;71.62;95902.88;5022099;28;21152;-77
2024/01/08 06:37:37;;;;;;;5.93;4.97;;;;;;;-3.40;72.27;95896.47;5024951;28;20293;-78
2024/01/08 06:40:03;;;;;;;7.07;4.87;;;;;;;-3.22;72.25;95893.25;5005181;28;20239;-78
2024/01/08 06:42:28;;;;;;;8.53;4.93;;;;;;;-3.63;72.30;95897.28;5024284;28;20198;-78
2024/01/08 06:44:53;;;;;;;7.90;5.53;;;;;;;-3.52;72.16;95899.47;5022346;28;20191;-77
2024/01/08 06:47:19;;;;;;;6.87;4.90;;;;;;;-3.33;71.49;95895.38;5023954;28;20210;-78
2024/01/08 06:49:44;;;;;;;9.27;5.30;;;;;;;-3.19;71.67;95893.13;5023028;28;20282;-78
2024/01/08 06:52:09;;;;;;;7.13;5.33;;;;;;;-3.07;71.35;95891.88;5026809;28;20183;-78
2024/01/08 06:54:35;;;;;;;8.53;5.80;;;;;;;-3.07;71.82;95894.41;5024581;28;20182;-78
2024/01/08 06:57:00;;;;;;;7.70;5.57;;;;;;;-3.20;71.80;95894.03;5023492;28;20193;-78
2024/01/08 06:59:26;;;;;;;7.90;5.90;;;;;;;-3.34;72.59;95905.59;5007258;28;20712;-78
2024/01/08 07:01:51;;;;;;;9.47;5.60;;;;;;;-2.99;71.45;95894.97;5008429;28;20196;-78
2024/01/08 07:04:17;;;;;;;8.60;6.30;;;;;;;-3.20;71.73;95909.25;5009574;28;20705;-78
2024/01/08 07:06:43;;;;;;;7.43;5.60;;;;;;;-2.95;71.33;95898.19;5021848;28;20182;-78
2024/01/08 07:09:08;;;;;;;8.63;6.07;;;;;;;-3.26;71.43;95911.22;5005453;28;20198;-78
2024/01/08 07:11:33;;;;;;;6.90;5.27;;;;;;;-3.20;71.33;95903.34;5014989;28;20182;-77
2024/01/08 07:13:59;;;;;;;7.57;5.77;;;;;;;-3.02;71.22;95917.91;5026527;28;20186;-78
2024/01/08 07:16:25;;;;;;;7.17;5.60;;;;;;;-3.11;71.28;95909.81;5021060;28;20206;-79
2024/01/08 07:18:50;;;;;;;8.33;6.40;;;;;;;-2.90;70.12;95909.03;5021708;28;20673;-79
2024/01/08 07:21:16;;;;;;;9.27;5.87;;;;;;;-2.80;70.73;95905.25;5019878;28;20179;-78
2024/01/08 07:23:45;;;;;;;9.43;6.57;;;;;;;-3.01;70.78;95913.66;5007066;28;20199;-79
2024/01/08 07:26:14;;;;;;;5.83;5.07;;;;;;;-3.36;71.31;95904.78;5002975;28;20665;-78
2024/01/08 07:28:40;;;;;;;8.73;5.50;;;;;;;-3.18;70.63;95916.81;5006154;28;20709;-79
2024/01/08 07:31:05;;;;;;;12.10;6.67;;;;;;;-2.95;71.67;95913.44;5005725;28;20215;-79
2024/01/08 07:33:30;;;;;;;6.97;5.53;;;;;;;-2.99;72.00;95915.28;5023301;28;20194;-78
2024/01/08 07:35:56;;;;;;;9.43;5.73;;;;;;;-3.19;71.96;95916.00;5019974;28;20190;-78
2024/01/08 07:38:22;;;;;;;10.67;6.00;;;;;;;-2.87;70.97;95914.81;4992672;28;20532;-78
2024/01/08 07:40:47;;;;;;;7.63;5.23;;;;;;;-2.77;71.05;95915.28;5006854;28;20198;-77
2024/01/08 07:43:13;;;;;;;6.87;4.80;;;;;;;-3.68;71.37;95927.06;4992589;28;20222;-77
2024/01/08 07:45:39;;;;;;;6.27;5.10;;;;;;;-3.52;71.54;95929.91;5004034;28;20187;-78
2024/01/08 07:48:05;;;;;;;7.03;5.33;;;;;;;-3.12;70.88;95931.84;5010666;28;20294;-78
2024/01/08 07:50:30;;;;;;;7.60;5.07;;;;;;;-3.10;71.75;95924.16;5022845;28;20261;-79
2024/01/08 07:52:55;;;;;;;6.37;5.00;;;;;;;-3.03;71.33;95923.06;5021366;28;20191;-78
2024/01/08 07:55:21;;;;;;;6.40;5.17;;;;;;;-2.82;70.80;95926.53;5017589;28;20191;-77
2024/01/08 07:57:46;;;;;;;9.13;5.17;;;;;;;-2.96;70.17;95929.59;5019618;28;20719;-76
2024/01/08 08:00:12;;;;;;;9.93;5.57;;;;;;;-3.33;70.73;95932.63;4998330;28;20271;-77
2024/01/08 08:02:41;;;;;;;8.27;5.30;;;;;;;-3.35;71.08;95934.41;5017659;28;20720;-77
2024/01/08 08:05:06;;;;;;;5.83;5.23;;;;;;;-3.04;70.90;95939.19;5014541;28;20191;-76
2024/01/08 08:07:32;;;;;;;7.47;5.73;;;;;;;-2.83;70.43;95938.41;5015058;28;20753;-77
2024/01/08 08:09:58;;;;;;;10.17;6.47;;;;;;;-3.20;70.83;95936.38;5014850;28;20248;-77
2024/01/08 08:12:23;;;;;;;10.63;6.53;;;;;;;-3.27;71.30;95938.34;4999983;28;20327;-77
2024/01/08 08:14:48;;;;;;;8.60;6.57;;;;;;;-2.89;69.82;95943.72;5015380;28;20194;-77
2024/01/08 08:17:14;;;;;;;8.07;5.70;;;;;;;-3.16;69.78;95940.47;4989649;28;20195;-76
2024/01/08 08:19:42;;;;;;;8.00;5.03;;;;;;;-2.97;70.20;95936.38;4999887;28;20219;-76
2024/01/08 08:22:07;;;;;;;8.03;6.00;;;;;;;-3.10;70.86;95947.03;4986127;28;20191;-76
2024/01/08 08:24:33;;;;;;;8.33;5.33;;;;;;;-3.39;70.64;95950.63;4989973;28;20187;-74
2024/01/08 08:27:00;;;;;;;8.37;5.33;;;;;;;-3.15;70.13;95939.59;5003047;28;20261;-77
2024/01/08 08:29:25;;;;;;;6.03;4.90;;;;;;;-2.86;70.58;95949.50;5009305;28;20199;-77
2024/01/08 08:31:50;;;;;;;7.83;5.60;;;;;;;-2.82;70.53;95950.25;5017133;28;20620;-78
2024/01/08 08:34:16;;;;;;;8.47;5.57;;;;;;;-2.91;69.71;95948.88;5009969;28;20216;-77
2024/01/08 08:36:41;;;;;;;7.67;5.63;;;;;;;-2.88;69.18;95947.91;5008140;28;20191;-79
2024/01/08 08:39:07;;;;;;;6.27;5.30;;;;;;;-2.79;69.89;95950.13;5007264;28;20241;-77
2024/01/08 08:41:32;;;;;;;7.07;5.87;;;;;;;-2.73;69.77;95952.44;4993587;28;20217;-78
2024/01/08 08:43:57;;;;;;;7.63;5.33;;;;;;;-2.93;69.49;95954.88;5009007;28;20191;-78
2024/01/08 08:46:23;;;;;;;8.00;6.00;;;;;;;-3.15;69.56;95957.38;4990220;28;20261;-78
2024/01/08 08:48:48;;;;;;;9.77;6.00;;;;;;;-2.61;69.59;95963.84;4989053;28;20302;-77
2024/01/08 08:51:14;;;;;;;6.03;4.80;;;;;;;-2.95;69.37;95965.09;4984049;28;20694;-76
2024/01/08 08:53:39;;;;;;;8.87;5.23;;;;;;;-2.62;69.04;95968.13;5008758;28;20194;-77
2024/01/08 08:56:04;;;;;;;7.07;5.17;;;;;;;-2.65;68.59;95968.25;5012905;28;20253;-78
2024/01/08 08:58:30;;;;;;;6.37;5.10;;;;;;;-2.54;69.33;95977.16;4993688;28;20242;-76
2024/01/08 09:00:56;;;;;;;6.90;5.00;;;;;;;-2.89;68.92;95972.50;5001222;28;20191;-78
2024/01/08 09:03:21;;;;;;;7.13;4.40;;;;;;;-2.99;68.28;95970.38;4993149;28;20202;-77
2024/01/08 09:05:47;;;;;;;7.20;4.80;;;;;;;-2.91;67.95;95965.84;5009795;28;20201;-77
2024/01/08 09:08:12;;;;;;;9.83;5.13;;;;;;;-2.48;68.21;95971.81;5000187;28;20227;-77
2024/01/08 09:10:37;;;;;;;5.70;5.10;;;;;;;-2.55;68.82;95980.59;5016434;28;20210;-77
2024/01/08 09:13:03;;;;;;;10.67;6.63;;;;;;;-2.74;69.22;95976.22;4986603;28;20198;-77
2024/01/08 09:15:28;;;;;;;9.67;6.07;;;;;;;-2.92;68.69;95970.06;5012961;28;20198;-79
2024/01/08 09:17:54;;;;;;;7.80;5.97;;;;;;;-2.97;68.49;95983.84;5015042;28;20249;-75
2024/01/08 09:20:21;;;;;;;7.13;5.37;;;;;;;-2.72;68.32;95992.22;4994283;28;20203;-77
2024/01/08 09:22:46;;;;;;;6.70;5.37;;;;;;;-2.70;68.09;95992.16;5013294;28;20307;-77
2024/01/08 09:25:12;;;;;;;6.37;4.57;;;;;;;-2.79;68.11;95992.50;4999544;28;20245;-77
2024/01/08 09:27:39;;;;;;;6.87;5.40;;;;;;;-2.75;68.62;95994.84;5019587;28;20215;-77
2024/01/08 09:30:06;;;;;;;6.90;5.33;;;;;;;-2.77;68.61;95996.63;4995546;28;20179;-77
2024/01/08 09:32:31;;;;;;;7.73;5.30;;;;;;;-2.86;68.95;95992.72;5006959;28;20190;-77
2024/01/08 09:34:56;;;;;;;7.53;5.50;;;;;;;-2.79;68.51;95992.50;5018137;28;20189;-78
2024/01/08 09:37:22;;;;;;;6.17;4.70;;;;;;;-2.83;67.90;95996.84;5020514;28;20187;-77
2024/01/08 09:39:47;;;;;;;7.63;5.80;;;;;;;-3.02;69.13;95990.78;5001558;28;20295;-78
2024/01/08 09:42:13;;;;;;;16.97;10.47;;;;;;;-2.85;68.92;95998.63;5016404;28;20205;-78
2024/01/08 09:44:41;;;;;;;10.27;6.57;;;;;;;-3.13;68.96;96004.69;5017541;28;20215;-78
2024/01/08 09:47:06;;;;;;;11.27;5.70;;;;;;;-3.07;69.00;96002.84;5001821;28;20274;-77
2024/01/08 09:49:33;;;;;;;6.23;4.97;;;;;;;-2.91;68.35;95998.88;5018634;28;20256;-78
2024/01/08 09:52:03;;;;;;;8.03;6.13;;;;;;;-2.64;67.97;96008.03;5025556;28;20207;-78
2024/01/08 09:54:29;;;;;;;10.57;5.90;;;;;;;-2.49;67.58;96005.78;5023298;28;20194;-77
2024/01/08 09:56:56;;;;;;;7.67;5.83;;;;;;;-2.55;67.26;96009.41;5003898;28;20198;-78
2024/01/08 09:59:22;;;;;;;10.43;7.17;;;;;;;-2.48;67.40;96012.50;5006722;28;20219;-78
2024/01/08 10:01:47;;;;;;;9.07;5.93;;;;;;;-3.08;68.61;96008.81;5020865;28;20190;-78
2024/01/08 10:04:12;;;;;;;10.30;6.80;;;;;;;-3.03;68.65;96012.81;5019646;28;20180;-77
2024/01/08 10:06:39;;;;;;;5.57;4.70;;;;;;;-2.99;67.09;96005.94;5027575;28;20198;-80
2024/01/08 10:09:04;;;;;;;5.77;5.20;;;;;;;-2.73;67.78;96008.38;5023828;28;20199;-78
2024/01/08 10:11:30;;;;;;;10.10;6.37;;;;;;;-2.80;67.14;96006.09;5026085;28;20187;-79
2024/01/08 10:13:55;;;;;;;8.73;6.27;;;;;;;-2.90;66.33;96000.53;5020854;28;20182;-78
2024/01/08 10:16:20;;;;;;;8.27;5.47;;;;;;;-2.94;67.44;96004.03;5009440;28;20196;-78
2024/01/08 10:18:47;;;;;;;7.73;5.90;;;;;;;-3.27;67.57;96012.00;5021492;28;20216;-78
2024/01/08 10:21:13;;;;;;;7.47;5.83;;;;;;;-2.95;67.39;96003.22;5023464;28;20179;-78
2024/01/08 10:23:40;;;;;;;6.93;5.43;;;;;;;-3.15;67.57;96001.41;5007514;28;20273;-78
2024/01/08 10:26:05;;;;;;;6.83;5.37;;;;;;;-3.14;68.38;96002.22;5004580;28;20179;-78
2024/01/08 10:28:37;;;;;;;8.77;5.70;;;;;;;-2.76;67.28;95994.91;5004462;28;20253;-79
2024/01/08 10:31:08;;;;;;;9.53;7.07;;;;;;;-2.44;66.62;95999.66;5019242;28;20730;-78
2024/01/08 10:33:33;;;;;;;12.47;8.10;;;;;;;-2.96;66.59;95995.66;5034272;28;20206;-77
2024/01/08 10:36:07;;;;;;;10.00;6.33;;;;;;;-2.73;67.05;96000.75;5032818;28;20172;-77
2024/01/08 10:38:33;;;;;;;7.97;6.03;;;;;;;-2.76;66.29;96000.84;5017362;28;20215;-77
2024/01/08 10:41:03;;;;;;;9.07;5.63;;;;;;;-2.73;67.10;95997.38;5012056;28;20279;-78
2024/01/08 10:43:29;;;;;;;9.20;5.50;;;;;;;-2.98;67.27;95994.88;5010178;28;20186;-80
2024/01/08 10:45:58;;;;;;;7.03;5.20;;;;;;;-2.86;67.59;95995.25;5014116;28;20179;-77
2024/01/08 10:48:28;;;;;;;6.77;4.80;;;;;;;-2.73;67.47;95994.81;5009092;28;20196;-77
2024/01/08 10:50:54;;;;;;;14.70;8.50;;;;;;;-2.65;66.68;95995.34;5009434;28;20206;-78
2024/01/08 10:53:43;;;;;;;9.43;5.67;;;;;;;-2.77;66.61;95995.81;5002562;28;20199;-79
2024/01/08 10:56:14;;;;;;;7.80;6.20;;;;;;;-2.85;66.50;95988.47;5019083;28;20195;-80
2024/01/08 10:59:01;;;;;;;6.03;5.23;;;;;;;-2.95;67.74;95994.75;5005920;28;20297;-79
2024/01/08 11:01:29;;;;;;;9.27;6.47;;;;;;;-2.61;66.76;95994.38;5019854;28;20187;-79
2024/01/08 11:03:55;;;;;;;7.33;5.27;;;;;;;-2.47;66.88;96004.00;5018458;28;20266;-78
2024/01/08 11:06:21;;;;;;;7.47;5.80;;;;;;;-2.46;66.16;95992.97;5018203;28;20656;-79
2024/01/08 11:08:49;;;;;;;6.40;5.10;;;;;;;-2.40;65.85;95997.81;5021949;28;20283;-79
2024/01/08 11:11:15;;;;;;;6.23;4.33;;;;;;;-2.51;65.44;95992.31;5020815;28;20179;-78
2024/01/08 11:13:41;;;;;;;6.13;4.60;;;;;;;-2.70;66.39;95990.44;5028065;28;20206;-78
2024/01/08 11:16:07;;;;;;;5.20;4.63;;;;;;;-2.83;66.03;95994.31;5025777;28;20179;-79
2024/01/08 11:18:32;;;;;;;6.57;5.03;;;;;;;-2.69;65.86;95997.19;5006391;28;20736;-78
2024/01/08 11:20:59;;;;;;;5.97;4.90;;;;;;;-2.82;66.59;95985.81;5018647;28;20238;-78
2024/01/08 11:23:31;;;;;;;8.27;4.93;;;;;;;-2.65;65.78;95995.34;5002474;28;20198;-77
2024/01/08 11:25:57;;;;;;;7.60;5.47;;;;;;;-2.65;64.75;95996.19;5013053;28;20226;-78
2024/01/08 11:28:23;;;;;;;7.07;4.67;;;;;;;-2.75;64.20;95989.78;5021025;28;20258;-77